createdAt,value
2017-12-12T00:02:13.049Z,2.53
2017-12-12T00:04:40.610Z,3.07
2017-12-12T00:07:08.173Z,2.70
2017-12-12T00:09:35.834Z,9.40
2017-12-12T00:12:03.419Z,14.10
2017-12-12T00:14:30.984Z,16.70
2017-12-12T00:16:58.549Z,18.47
2017-12-12T00:19:26.153Z,18.30
2017-12-12T00:21:53.739Z,17.43
2017-12-12T00:24:21.398Z,18.70
2017-12-12T00:26:48.985Z,16.20
2017-12-12T00:29:16.576Z,16.77
2017-12-12T00:31:45.721Z,17.47
2017-12-12T00:34:13.370Z,15.80
2017-12-12T00:36:41.038Z,15.10
2017-12-12T00:39:08.605Z,16.47
2017-12-12T00:41:36.214Z,16.00
2017-12-12T00:44:03.805Z,11.63
2017-12-12T00:46:31.390Z,15.57
2017-12-12T00:48:58.961Z,18.10
2017-12-12T00:51:26.553Z,17.03
2017-12-12T00:53:54.141Z,16.93
2017-12-12T00:56:21.764Z,16.37
2017-12-12T00:58:49.316Z,16.00
2017-12-12T01:01:16.915Z,17.50
2017-12-12T01:03:45.231Z,13.50
2017-12-12T01:06:12.793Z,16.97
2017-12-12T01:08:40.392Z,13.37
2017-12-12T01:11:07.981Z,12.40
2017-12-12T01:13:36.337Z,14.07
2017-12-12T01:16:03.926Z,10.43
2017-12-12T01:18:32.245Z,11.50
2017-12-12T01:20:59.823Z,9.60
2017-12-12T01:23:27.418Z,9.60
2017-12-12T01:25:55.827Z,10.57
2017-12-12T01:28:24.318Z,11.60
2017-12-12T01:30:51.868Z,11.27
2017-12-12T01:33:19.448Z,10.83
2017-12-12T01:35:47.023Z,10.30
2017-12-12T01:38:14.594Z,12.27
2017-12-12T01:40:42.417Z,9.17
2017-12-12T01:43:09.982Z,10.87
2017-12-12T01:45:37.557Z,10.70
2017-12-12T01:48:05.101Z,11.30
2017-12-12T01:50:32.697Z,13.97
2017-12-12T01:53:00.253Z,11.50
2017-12-12T01:55:28.146Z,12.20
2017-12-12T01:57:55.722Z,10.80
2017-12-12T02:00:24.347Z,12.40
2017-12-12T02:02:51.905Z,11.50
2017-12-12T02:05:20.357Z,12.10
2017-12-12T02:07:47.925Z,12.30
2017-12-12T02:10:16.244Z,9.83
2017-12-12T02:12:43.781Z,11.80
2017-12-12T02:15:11.643Z,14.90
2017-12-12T02:17:39.221Z,13.30
2017-12-12T02:20:06.793Z,13.27
2017-12-12T02:22:34.334Z,10.90
2017-12-12T02:25:01.982Z,12.20
2017-12-12T02:27:29.534Z,10.03
2017-12-12T02:29:57.837Z,10.13
2017-12-12T02:32:25.401Z,10.10
2017-12-12T02:34:52.946Z,10.77
2017-12-12T02:37:20.532Z,11.60
2017-12-12T02:39:48.062Z,11.43
2017-12-12T02:42:15.756Z,11.20
2017-12-12T02:44:43.297Z,9.80
2017-12-12T02:47:10.859Z,11.50
2017-12-12T02:49:39.337Z,12.57
2017-12-12T02:52:06.897Z,11.77
2017-12-12T02:54:34.448Z,11.43
2017-12-12T02:57:02.024Z,10.53
2017-12-12T02:59:29.657Z,11.87
2017-12-12T03:01:57.221Z,11.73
2017-12-12T03:04:24.801Z,11.90
2017-12-12T03:06:52.394Z,11.00
2017-12-12T03:09:19.960Z,10.43
2017-12-12T03:11:47.494Z,10.97
2017-12-12T03:14:15.066Z,9.77
2017-12-12T03:16:42.626Z,10.70
2017-12-12T03:19:10.196Z,12.00
2017-12-12T03:21:37.759Z,12.10
2017-12-12T03:24:05.361Z,11.43
2017-12-12T03:26:33.661Z,10.97
2017-12-12T03:29:01.239Z,11.83
2017-12-12T03:31:28.781Z,14.00
2017-12-12T03:33:56.359Z,12.57
2017-12-12T03:36:24.681Z,11.87
2017-12-12T03:38:53.040Z,12.17
2017-12-12T03:41:20.903Z,14.33
2017-12-12T03:43:48.433Z,14.20
2017-12-12T03:46:16.030Z,13.07
2017-12-12T03:48:43.570Z,13.70
2017-12-12T03:51:11.158Z,11.17
2017-12-12T03:53:38.709Z,11.17
2017-12-12T03:56:06.278Z,13.20
2017-12-12T03:58:33.941Z,13.67
2017-12-12T04:01:01.497Z,13.57
2017-12-12T04:03:29.128Z,14.07
2017-12-12T04:05:56.686Z,13.57
2017-12-12T04:08:24.259Z,14.53
2017-12-12T04:10:51.817Z,15.53
2017-12-12T04:13:19.394Z,12.97
2017-12-12T04:15:47.335Z,11.80
2017-12-12T04:18:14.869Z,13.63
2017-12-12T04:20:42.433Z,12.10
2017-12-12T04:23:09.992Z,13.20
2017-12-12T04:25:37.569Z,10.50
2017-12-12T04:28:05.132Z,14.40
2017-12-12T04:30:32.706Z,13.63
2017-12-12T04:33:00.274Z,14.40
2017-12-12T04:35:28.627Z,11.93
2017-12-12T04:37:56.194Z,12.30
2017-12-12T04:40:23.761Z,13.40
2017-12-12T04:42:51.304Z,13.57
2017-12-12T04:45:19.758Z,14.87
2017-12-12T04:47:48.075Z,11.37
2017-12-12T04:50:15.646Z,12.67
2017-12-12T04:52:43.237Z,12.43
2017-12-12T04:55:10.808Z,13.30
2017-12-12T04:57:38.353Z,11.60
2017-12-12T05:00:05.889Z,11.90
2017-12-12T05:02:33.454Z,13.40
2017-12-12T05:05:01.002Z,12.20
2017-12-12T05:07:28.574Z,11.80
2017-12-12T05:09:56.152Z,13.40
2017-12-12T05:12:23.712Z,13.83
2017-12-12T05:14:51.277Z,10.93
2017-12-12T05:17:18.836Z,13.20
2017-12-12T05:19:46.387Z,12.63
2017-12-12T05:22:13.955Z,14.90
2017-12-12T05:24:41.525Z,14.13
2017-12-12T05:27:09.103Z,14.80
2017-12-12T05:29:37.423Z,13.83
2017-12-12T05:32:04.976Z,10.57
2017-12-12T05:34:32.536Z,13.27
2017-12-12T05:37:00.109Z,13.50
2017-12-12T05:39:27.678Z,10.80
2017-12-12T05:41:55.226Z,13.50
2017-12-12T05:44:23.566Z,14.20
2017-12-12T05:46:51.885Z,9.30
2017-12-12T05:49:19.490Z,13.43
2017-12-12T05:51:47.082Z,12.27
2017-12-12T05:54:14.658Z,14.33
2017-12-12T05:56:42.249Z,15.47
2017-12-12T05:59:09.816Z,12.90
2017-12-12T06:01:37.394Z,14.07
2017-12-12T06:04:05.475Z,19.03
2017-12-12T06:06:33.818Z,14.83
2017-12-12T06:09:01.362Z,17.43
2017-12-12T06:11:28.918Z,13.63
2017-12-12T06:13:56.482Z,17.17
2017-12-12T06:16:24.042Z,19.73
2017-12-12T06:18:51.610Z,18.77
2017-12-12T06:21:19.180Z,14.20
2017-12-12T06:23:46.726Z,17.30
2017-12-12T06:26:14.341Z,16.20
2017-12-12T06:28:42.684Z,17.70
2017-12-12T06:31:10.253Z,17.60
2017-12-12T06:33:37.835Z,17.47
2017-12-12T06:36:05.416Z,14.10
2017-12-12T06:38:33.757Z,13.30
2017-12-12T06:41:01.304Z,13.23
2017-12-12T06:43:28.872Z,14.27
2017-12-12T06:45:57.669Z,12.80
2017-12-12T06:48:25.476Z,11.03
2017-12-12T06:50:53.054Z,14.63
2017-12-12T06:53:20.665Z,12.23
2017-12-12T06:55:48.225Z,12.60
2017-12-12T06:58:15.773Z,13.40
2017-12-12T07:00:43.353Z,15.53
2017-12-12T07:03:11.378Z,14.67
2017-12-12T07:05:38.934Z,14.30
2017-12-12T07:08:06.512Z,15.20
2017-12-12T07:10:34.093Z,17.10
2017-12-12T07:13:02.405Z,13.40
2017-12-12T07:15:29.973Z,16.47
2017-12-12T07:17:58.354Z,17.80
2017-12-12T07:20:25.899Z,17.30
2017-12-12T07:22:54.249Z,16.17
2017-12-12T07:25:21.824Z,15.73
2017-12-12T07:27:49.389Z,16.30
2017-12-12T07:30:16.954Z,15.57
2017-12-12T07:32:45.272Z,13.03
2017-12-12T07:35:12.845Z,17.30
2017-12-12T07:37:40.493Z,16.70
2017-12-12T07:40:08.085Z,17.67
2017-12-12T07:42:35.644Z,20.43
2017-12-12T07:45:03.221Z,17.20
2017-12-12T07:47:30.852Z,15.60
2017-12-12T07:49:58.395Z,17.43
2017-12-12T07:52:25.961Z,17.47
2017-12-12T07:54:53.589Z,13.00
2017-12-12T07:57:22.006Z,18.43
2017-12-12T07:59:49.572Z,13.73
2017-12-12T08:02:17.190Z,18.07
2017-12-12T08:04:45.599Z,15.63
2017-12-12T08:07:13.193Z,13.10
2017-12-12T08:09:40.773Z,15.63
2017-12-12T08:12:08.393Z,13.23
2017-12-12T08:14:35.981Z,14.20
2017-12-12T08:17:03.561Z,10.17
2017-12-12T08:19:31.153Z,15.27
2017-12-12T08:21:58.743Z,14.10
2017-12-12T08:24:26.322Z,14.87
2017-12-12T08:26:53.954Z,13.50
2017-12-12T08:29:21.539Z,15.87
2017-12-12T08:31:49.139Z,14.10
2017-12-12T08:34:17.491Z,11.87
2017-12-12T08:36:45.110Z,12.40
2017-12-12T08:39:12.693Z,10.33
2017-12-12T08:41:40.310Z,15.93
2017-12-12T08:44:08.629Z,14.77
2017-12-12T08:46:36.201Z,13.82
2017-12-12T08:49:03.763Z,12.90
2017-12-12T08:51:31.345Z,15.70
2017-12-12T08:53:58.900Z,12.27
2017-12-12T08:56:27.177Z,13.80
2017-12-12T08:58:54.750Z,11.77
2017-12-12T09:01:22.320Z,12.40
2017-12-12T09:03:50.660Z,15.37
2017-12-12T09:06:18.230Z,16.27
2017-12-12T09:08:45.793Z,12.00
2017-12-12T09:11:13.380Z,13.37
2017-12-12T09:13:41.811Z,14.40
2017-12-12T09:16:09.412Z,13.03
2017-12-12T09:18:36.966Z,13.40
2017-12-12T09:21:04.530Z,13.77
2017-12-12T09:23:32.102Z,13.70
2017-12-12T09:25:59.667Z,15.13
2017-12-12T09:28:28.036Z,13.87
2017-12-12T09:30:55.636Z,14.60
2017-12-12T09:33:23.211Z,14.40
2017-12-12T09:35:50.784Z,14.57
2017-12-12T09:38:18.366Z,13.87
2017-12-12T09:40:45.925Z,13.13
2017-12-12T09:43:13.504Z,12.20
2017-12-12T09:45:41.843Z,14.20
2017-12-12T09:48:09.405Z,12.03
2017-12-12T09:50:36.986Z,14.07
2017-12-12T09:53:04.620Z,12.03
2017-12-12T09:55:32.218Z,12.00
2017-12-12T09:57:59.789Z,12.17
2017-12-12T10:00:27.396Z,11.20
2017-12-12T10:02:54.962Z,10.40
2017-12-12T10:05:22.556Z,13.50
2017-12-12T10:07:50.122Z,13.20
2017-12-12T10:10:17.843Z,13.10
2017-12-12T10:12:45.414Z,13.67
2017-12-12T10:15:12.990Z,11.37
2017-12-12T10:17:40.574Z,12.83
2017-12-12T10:20:08.154Z,11.13
2017-12-12T10:22:36.504Z,12.20
2017-12-12T10:25:04.070Z,11.93
2017-12-12T10:27:31.710Z,13.50
2017-12-12T10:29:59.264Z,13.10
2017-12-12T10:32:26.829Z,12.13
2017-12-12T10:34:54.841Z,13.77
2017-12-12T10:37:23.232Z,8.77
2017-12-12T10:39:50.825Z,11.20
2017-12-12T10:42:18.382Z,10.87
2017-12-12T10:44:45.962Z,14.13
2017-12-12T10:47:13.517Z,12.57
2017-12-12T10:49:41.093Z,11.33
2017-12-12T10:52:08.649Z,11.30
2017-12-12T10:54:36.214Z,9.47
2017-12-12T10:57:03.766Z,13.50
2017-12-12T10:59:31.351Z,13.17
2017-12-12T11:01:59.162Z,13.40
2017-12-12T11:04:26.712Z,12.90
2017-12-12T11:06:54.317Z,14.10
2017-12-12T11:09:22.021Z,14.37
2017-12-12T11:11:50.379Z,12.07
2017-12-12T11:14:17.952Z,11.10
2017-12-12T11:16:45.512Z,13.73
2017-12-12T11:19:13.092Z,13.30
2017-12-12T11:21:41.429Z,12.17
2017-12-12T11:24:09.005Z,14.73
2017-12-12T11:26:36.564Z,10.93
2017-12-12T11:29:04.122Z,11.60
2017-12-12T11:31:31.718Z,7.70
2017-12-12T11:34:00.042Z,11.83
2017-12-12T11:36:27.617Z,9.67
2017-12-12T11:38:55.243Z,12.10
2017-12-12T11:41:22.810Z,10.93
2017-12-12T11:43:50.404Z,10.77
2017-12-12T11:46:18.011Z,13.73
2017-12-12T11:48:45.598Z,13.60
2017-12-12T11:51:13.180Z,9.90
2017-12-12T11:53:40.791Z,14.00
2017-12-12T11:56:08.358Z,14.50
2017-12-12T11:58:35.923Z,12.43
2017-12-12T12:01:03.515Z,15.00
2017-12-12T12:03:31.053Z,12.33
2017-12-12T12:05:58.664Z,13.27
2017-12-12T12:08:26.215Z,15.48
2017-12-12T12:10:53.780Z,15.13
2017-12-12T12:13:21.323Z,16.30
2017-12-12T12:15:48.913Z,10.73
2017-12-12T12:18:17.238Z,12.00
2017-12-12T12:20:44.807Z,15.87
2017-12-12T12:23:12.391Z,13.80
2017-12-12T12:25:40.064Z,9.00
2017-12-12T12:28:07.629Z,12.93
2017-12-12T12:30:35.214Z,11.60
2017-12-12T12:33:03.523Z,11.77
2017-12-12T12:35:31.140Z,9.57
2017-12-12T12:37:59.471Z,13.10
2017-12-12T12:40:27.013Z,12.30
2017-12-12T12:42:54.577Z,11.00
2017-12-12T12:45:22.182Z,13.10
2017-12-12T12:47:49.757Z,11.97
2017-12-12T12:50:18.106Z,9.47
2017-12-12T12:52:45.703Z,8.63
2017-12-12T12:55:14.104Z,8.80
2017-12-12T12:57:41.698Z,10.60
2017-12-12T13:00:10.021Z,11.87
2017-12-12T13:02:38.351Z,10.53
2017-12-12T13:05:05.970Z,8.80
2017-12-12T13:07:34.327Z,10.20
2017-12-12T13:10:01.999Z,12.50
2017-12-12T13:12:30.335Z,11.03
2017-12-12T13:14:57.901Z,12.27
2017-12-12T13:17:25.488Z,9.80
2017-12-12T13:19:53.070Z,12.30
2017-12-12T13:22:21.414Z,10.67
2017-12-12T13:24:48.997Z,10.37
2017-12-12T13:27:17.358Z,10.10
2017-12-12T13:29:44.947Z,10.17
2017-12-12T13:32:13.316Z,10.73
2017-12-12T13:34:40.932Z,9.97
2017-12-12T13:37:08.602Z,10.17
2017-12-12T13:39:36.209Z,9.57
2017-12-12T13:42:04.610Z,9.17
2017-12-12T13:44:32.373Z,6.20
2017-12-12T13:47:00.378Z,10.70
2017-12-12T13:49:27.964Z,9.80
2017-12-12T13:51:55.553Z,10.23
2017-12-12T13:54:23.922Z,9.87
2017-12-12T13:56:51.487Z,9.40
2017-12-12T13:59:19.093Z,11.70
2017-12-12T14:01:46.698Z,11.13
2017-12-12T14:04:14.283Z,11.57
2017-12-12T14:06:42.670Z,11.10
2017-12-12T14:09:11.010Z,11.53
2017-12-12T14:11:38.597Z,11.70
2017-12-12T14:14:06.931Z,10.27
2017-12-12T14:16:34.513Z,9.90
2017-12-12T14:19:02.126Z,9.50
2017-12-12T14:21:29.747Z,10.33
2017-12-12T14:23:57.310Z,10.03
2017-12-12T14:26:24.940Z,10.77
2017-12-12T14:28:52.523Z,11.10
2017-12-12T14:31:20.374Z,12.63
2017-12-12T14:33:51.281Z,10.90
2017-12-12T14:38:55.614Z,10.40
2017-12-12T14:41:26.436Z,10.60
2017-12-12T14:43:55.861Z,9.87
2017-12-12T14:46:23.576Z,9.50
2017-12-12T14:48:51.207Z,8.70
2017-12-12T14:51:18.807Z,8.63
2017-12-12T14:53:47.223Z,8.47
2017-12-12T14:56:14.798Z,9.70
2017-12-12T14:58:42.414Z,9.40
2017-12-12T15:01:18.641Z,8.80
2017-12-12T15:03:47.130Z,9.47
2017-12-12T15:06:14.717Z,10.40
2017-12-12T15:08:43.071Z,9.33
2017-12-12T15:11:10.643Z,9.40
2017-12-12T15:13:38.255Z,8.70
2017-12-12T15:16:05.930Z,9.87
2017-12-12T15:18:33.553Z,9.07
2017-12-12T15:21:01.930Z,10.90
2017-12-12T15:23:29.495Z,11.63
2017-12-12T15:25:58.033Z,10.50
2017-12-12T15:28:25.612Z,10.30
2017-12-12T15:30:53.202Z,12.67
2017-12-12T15:33:21.561Z,10.63
2017-12-12T15:35:50.050Z,10.57
2017-12-12T15:38:18.378Z,12.20
2017-12-12T15:40:45.982Z,12.17
2017-12-12T15:43:13.565Z,13.80
2017-12-12T15:45:42.042Z,12.40
2017-12-12T15:48:10.390Z,12.20
2017-12-12T15:50:37.968Z,12.37
2017-12-12T15:53:05.573Z,12.60
2017-12-12T15:55:33.143Z,11.97
2017-12-12T15:58:00.752Z,10.50
2017-12-12T16:00:28.308Z,10.00
2017-12-12T16:02:55.968Z,11.90
2017-12-12T16:05:23.526Z,10.87
2017-12-12T16:07:51.133Z,10.03
2017-12-12T16:10:19.607Z,11.40
2017-12-12T16:12:47.169Z,9.97
2017-12-12T16:15:14.807Z,7.97
2017-12-12T16:17:42.386Z,8.77
2017-12-12T16:20:10.717Z,10.37
2017-12-12T16:22:38.294Z,10.00
2017-12-12T16:25:06.818Z,10.47
2017-12-12T16:27:34.369Z,11.50
2017-12-12T16:30:01.978Z,11.53
2017-12-12T16:32:29.587Z,11.57
2017-12-12T16:34:57.910Z,11.30
2017-12-12T16:37:25.507Z,11.30
2017-12-12T16:39:53.086Z,13.00
2017-12-12T16:42:20.671Z,11.80
2017-12-12T16:44:48.287Z,12.53
2017-12-12T16:47:15.857Z,12.63
2017-12-12T16:49:44.218Z,11.83
2017-12-12T16:52:11.944Z,11.10
2017-12-12T16:54:39.513Z,12.13
2017-12-12T16:57:07.222Z,10.80
2017-12-12T16:59:34.857Z,13.03
2017-12-12T17:02:02.441Z,9.07
2017-12-12T17:04:30.033Z,10.07
2017-12-12T17:06:57.605Z,9.33
2017-12-12T17:09:25.198Z,9.27
2017-12-12T17:11:52.786Z,9.20
2017-12-12T17:14:21.113Z,9.63
2017-12-12T17:16:48.699Z,9.67
2017-12-12T17:19:16.326Z,9.73
2017-12-12T17:21:43.988Z,10.87
2017-12-12T17:24:11.606Z,9.50
2017-12-12T17:26:39.165Z,9.97
2017-12-12T17:29:06.753Z,8.93
2017-12-12T17:31:35.110Z,8.10
2017-12-12T17:34:02.754Z,8.53
2017-12-12T17:36:30.362Z,8.17
2017-12-12T17:38:58.184Z,8.73
2017-12-12T17:41:25.762Z,8.90
2017-12-12T17:43:53.374Z,7.67
2017-12-12T17:46:21.730Z,9.40
2017-12-12T17:48:49.300Z,9.90
2017-12-12T17:51:16.897Z,9.33
2017-12-12T17:53:44.493Z,8.77
2017-12-12T17:56:12.074Z,8.13
2017-12-12T17:58:39.650Z,9.80
2017-12-12T18:01:07.240Z,10.50
2017-12-12T18:03:35.591Z,9.27
2017-12-12T18:08:37.847Z,11.47
2017-12-12T18:11:06.193Z,10.70
2017-12-12T18:13:33.773Z,9.17
2017-12-12T18:16:01.363Z,10.30
2017-12-12T18:18:30.532Z,9.90
2017-12-12T18:20:58.130Z,10.90
2017-12-12T18:23:27.607Z,10.93
2017-12-12T18:25:56.183Z,12.07
2017-12-12T18:28:26.567Z,11.20
2017-12-12T18:30:54.202Z,12.03
2017-12-12T18:33:24.399Z,12.70
2017-12-12T18:35:53.857Z,12.43
2017-12-12T18:38:22.211Z,11.47
2017-12-12T18:40:49.790Z,11.13
2017-12-12T18:43:17.393Z,11.30
2017-12-12T18:45:45.006Z,13.10
2017-12-12T18:48:12.597Z,11.60
2017-12-12T18:50:40.209Z,12.15
2017-12-12T18:53:08.555Z,11.80
2017-12-12T18:55:36.190Z,13.60
2017-12-12T18:58:03.778Z,10.60
2017-12-12T19:00:31.359Z,12.33
2017-12-12T19:02:59.726Z,11.70
2017-12-12T19:05:27.330Z,12.50
2017-12-12T19:07:54.947Z,13.13
2017-12-12T19:10:22.503Z,13.23
2017-12-12T19:12:50.085Z,13.33
2017-12-12T19:15:18.504Z,12.10
2017-12-12T19:20:50.777Z,12.70
2017-12-12T20:05:25.982Z,16.63
2017-12-12T20:07:54.866Z,17.70
2017-12-12T20:10:23.281Z,18.50
2017-12-12T20:12:51.827Z,17.50
2017-12-12T20:15:20.195Z,18.60
2017-12-12T20:17:48.010Z,18.37
2017-12-12T20:20:15.679Z,18.50
2017-12-12T20:22:43.714Z,19.13
2017-12-12T20:25:11.417Z,18.20
2017-12-12T20:27:39.253Z,19.27
2017-12-12T20:30:08.015Z,22.23
2017-12-12T20:32:36.489Z,20.40
2017-12-12T20:35:04.376Z,20.70
2017-12-12T20:37:32.047Z,20.83
2017-12-12T20:39:59.939Z,20.40
2017-12-12T20:42:27.619Z,21.03
2017-12-12T20:44:55.486Z,19.07
2017-12-12T20:47:23.409Z,19.83
2017-12-12T20:49:51.314Z,22.60
2017-12-12T20:52:19.115Z,21.00
2017-12-12T20:54:46.866Z,20.50
2017-12-12T20:57:14.682Z,20.80
2017-12-12T20:59:43.097Z,19.90
2017-12-12T21:02:10.691Z,20.97
2017-12-12T21:04:38.400Z,21.90
2017-12-12T21:07:11.760Z,18.03
2017-12-12T21:09:39.394Z,21.60
2017-12-12T21:12:07.022Z,21.20
2017-12-12T21:14:35.417Z,20.27
2017-12-12T21:17:03.057Z,20.43
2017-12-12T21:19:31.568Z,19.77
2017-12-12T21:21:59.301Z,19.97
2017-12-12T21:24:29.532Z,19.80
2017-12-12T21:26:57.138Z,18.87
2017-12-12T21:29:25.666Z,19.30
2017-12-12T21:31:53.290Z,19.50
2017-12-12T21:34:22.375Z,20.53
2017-12-12T21:36:50.743Z,18.57
2017-12-12T21:39:18.489Z,18.63
2017-12-12T21:41:46.869Z,18.63
2017-12-12T21:44:15.205Z,18.93
2017-12-12T21:46:42.753Z,19.97
2017-12-12T21:49:10.325Z,18.57
2017-12-12T21:51:37.898Z,19.60
2017-12-12T21:54:05.436Z,17.47
2017-12-12T21:56:33.013Z,15.87
2017-12-12T21:59:01.359Z,17.77
2017-12-12T22:01:28.951Z,17.40
2017-12-12T22:03:56.693Z,18.17
2017-12-12T22:06:24.374Z,16.73
2017-12-12T22:08:51.976Z,16.87
2017-12-12T22:11:20.309Z,17.87
2017-12-12T22:13:47.870Z,16.20
2017-12-12T22:16:15.472Z,17.67
2017-12-12T22:18:43.858Z,16.13
2017-12-12T22:21:12.266Z,17.00
2017-12-12T22:23:39.825Z,18.90
2017-12-12T22:26:07.385Z,18.23
2017-12-12T22:28:34.993Z,18.90
2017-12-12T22:31:02.653Z,17.23
2017-12-12T22:33:31.861Z,18.20
2017-12-12T22:35:59.429Z,16.23
2017-12-12T22:38:27.802Z,19.03
2017-12-12T22:40:55.345Z,17.03
2017-12-12T22:43:22.915Z,16.53
2017-12-12T22:45:50.524Z,17.27
2017-12-12T22:48:18.081Z,16.60
2017-12-12T22:50:45.620Z,17.30
2017-12-12T22:53:13.969Z,17.63
2017-12-12T22:55:41.560Z,15.77
2017-12-12T22:58:09.981Z,17.60
2017-12-12T23:00:38.194Z,17.17
2017-12-12T23:03:05.788Z,18.10
2017-12-12T23:05:34.133Z,17.17
2017-12-12T23:08:01.759Z,16.27
2017-12-12T23:10:29.356Z,16.90
2017-12-12T23:12:56.950Z,17.43
2017-12-12T23:15:25.357Z,19.10
2017-12-12T23:17:52.982Z,16.33
2017-12-12T23:20:21.365Z,18.17
2017-12-12T23:22:49.743Z,17.50
2017-12-12T23:25:18.025Z,17.07
2017-12-12T23:27:45.638Z,14.70
2017-12-12T23:30:13.225Z,14.70
2017-12-12T23:32:40.922Z,11.63
2017-12-12T23:35:09.333Z,13.00
2017-12-12T23:37:36.913Z,13.87
2017-12-12T23:40:04.474Z,15.13
2017-12-12T23:42:32.067Z,13.80
2017-12-12T23:45:00.473Z,14.03
2017-12-12T23:47:28.034Z,12.40
2017-12-12T23:49:55.629Z,12.73
2017-12-12T23:52:23.207Z,13.63
2017-12-12T23:54:50.765Z,12.40
2017-12-12T23:57:19.396Z,11.90
2017-12-12T23:59:46.975Z,12.63
